createdAt,value
2018-04-10T00:01:18.361Z,13.35
2018-04-10T00:03:45.935Z,13.28
2018-04-10T00:06:13.480Z,13.33
2018-04-10T00:08:41.966Z,13.46
2018-04-10T00:11:09.481Z,13.40
2018-04-10T00:13:37.038Z,13.42
2018-04-10T00:16:04.553Z,13.37
2018-04-10T00:18:32.139Z,13.38
2018-04-10T00:20:59.665Z,13.36
2018-04-10T00:23:27.194Z,13.38
2018-04-10T00:25:54.765Z,13.40
2018-04-10T00:28:22.317Z,13.43
2018-04-10T00:30:49.873Z,13.40
2018-04-10T00:33:17.404Z,13.32
2018-04-10T00:35:44.964Z,13.32
2018-04-10T00:38:12.491Z,13.34
2018-04-10T00:40:40.051Z,13.40
2018-04-10T00:43:07.586Z,13.35
2018-04-10T00:45:35.145Z,13.23
2018-04-10T00:48:02.679Z,13.27
2018-04-10T00:50:30.247Z,13.27
2018-04-10T00:53:09.498Z,13.28
2018-04-10T00:55:37.049Z,13.16
2018-04-10T00:58:04.577Z,13.21
2018-04-10T01:00:32.157Z,13.18
2018-04-10T01:02:59.702Z,13.12
2018-04-10T01:05:27.262Z,13.15
2018-04-10T01:07:54.779Z,13.15
2018-04-10T01:10:22.335Z,13.06
2018-04-10T01:12:49.866Z,13.22
2018-04-10T01:15:17.441Z,13.22
2018-04-10T01:17:44.966Z,13.16
2018-04-10T01:20:12.526Z,13.16
2018-04-10T01:22:40.056Z,13.18
2018-04-10T01:25:07.603Z,13.22
2018-04-10T01:27:35.121Z,13.11
2018-04-10T01:30:02.679Z,13.07
2018-04-10T01:32:30.214Z,13.16
2018-04-10T01:34:57.834Z,13.20
2018-04-10T01:37:25.350Z,13.20
2018-04-10T01:39:52.901Z,13.12
2018-04-10T01:42:20.420Z,13.11
2018-04-10T01:44:48.004Z,13.09
2018-04-10T01:47:15.542Z,13.13
2018-04-10T01:49:43.107Z,12.99
2018-04-10T01:52:10.638Z,12.90
2018-04-10T01:54:38.199Z,12.67
2018-04-10T01:57:05.809Z,12.76
2018-04-10T01:59:33.338Z,12.89
2018-04-10T02:02:00.889Z,12.97
2018-04-10T02:04:28.410Z,12.93
2018-04-10T02:06:55.930Z,12.75
2018-04-10T02:09:23.492Z,12.80
2018-04-10T02:11:51.029Z,12.92
2018-04-10T02:14:18.585Z,12.94
2018-04-10T02:16:46.105Z,12.65
2018-04-10T02:19:13.669Z,12.48
2018-04-10T02:21:41.193Z,12.60
2018-04-10T02:24:08.763Z,12.80
2018-04-10T02:26:36.313Z,12.76
2018-04-10T02:29:03.887Z,12.66
2018-04-10T02:31:31.417Z,12.64
2018-04-10T02:33:58.997Z,12.68
2018-04-10T02:36:26.536Z,12.66
2018-04-10T02:38:54.094Z,12.79
2018-04-10T02:41:21.611Z,12.67
2018-04-10T02:43:49.173Z,12.69
2018-04-10T02:46:16.739Z,12.56
2018-04-10T02:48:44.279Z,12.54
2018-04-10T02:51:12.602Z,12.45
2018-04-10T02:53:40.307Z,12.43
2018-04-10T02:56:07.894Z,12.39
2018-04-10T02:58:35.425Z,12.42
2018-04-10T03:01:02.990Z,12.33
2018-04-10T03:03:30.513Z,12.34
2018-04-10T03:05:58.073Z,12.36
2018-04-10T03:08:25.597Z,12.35
2018-04-10T03:10:53.192Z,12.32
2018-04-10T03:13:20.729Z,12.34
2018-04-10T03:15:48.288Z,12.22
2018-04-10T03:18:15.813Z,12.20
2018-04-10T03:20:43.422Z,12.21
2018-04-10T03:23:10.936Z,12.14
2018-04-10T03:25:38.509Z,12.27
2018-04-10T03:28:06.037Z,12.26
2018-04-10T03:30:33.592Z,12.23
2018-04-10T03:33:01.109Z,12.20
2018-04-10T03:35:28.627Z,12.24
2018-04-10T03:37:56.194Z,12.16
2018-04-10T03:40:23.734Z,11.75
2018-04-10T03:42:51.298Z,11.57
2018-04-10T03:45:18.821Z,11.87
2018-04-10T03:47:46.397Z,12.01
2018-04-10T03:50:13.916Z,12.06
2018-04-10T03:52:41.488Z,12.19
2018-04-10T03:55:09.014Z,12.20
2018-04-10T03:57:36.581Z,12.17
2018-04-10T04:00:04.168Z,12.16
2018-04-10T04:02:31.728Z,12.18
2018-04-10T04:04:59.371Z,12.13
2018-04-10T04:07:26.981Z,12.17
2018-04-10T04:09:54.516Z,12.21
2018-04-10T04:12:22.078Z,12.21
2018-04-10T04:14:49.622Z,12.03
2018-04-10T04:17:27.913Z,12.05
2018-04-10T04:20:07.317Z,12.05
2018-04-10T04:22:38.702Z,11.87
2018-04-10T04:25:06.266Z,11.98
2018-04-10T04:27:33.819Z,12.08
2018-04-10T04:30:01.355Z,12.01
2018-04-10T04:32:28.926Z,12.06
2018-04-10T04:34:56.465Z,12.07
2018-04-10T04:37:24.017Z,12.17
2018-04-10T04:39:51.580Z,12.11
2018-04-10T04:42:19.348Z,12.10
2018-04-10T04:44:47.117Z,11.97
2018-04-10T04:47:17.617Z,12.08
2018-04-10T04:49:45.281Z,12.03
2018-04-10T04:52:13.090Z,12.03
2018-04-10T04:54:45.587Z,12.06
2018-04-10T04:57:13.371Z,12.05
2018-04-10T04:59:40.904Z,12.13
2018-04-10T05:02:08.497Z,12.06
2018-04-10T05:04:36.030Z,12.04
2018-04-10T05:07:03.595Z,12.09
2018-04-10T05:09:31.133Z,12.11
2018-04-10T05:11:58.689Z,12.04
2018-04-10T05:14:26.212Z,12.19
2018-04-10T05:16:53.790Z,12.21
2018-04-10T05:19:21.314Z,12.14
2018-04-10T05:21:48.873Z,12.07
2018-04-10T05:24:16.394Z,12.11
2018-04-10T05:26:43.921Z,12.18
2018-04-10T05:29:11.738Z,12.03
2018-04-10T05:31:39.571Z,12.09
2018-04-10T05:34:07.258Z,12.11
2018-04-10T05:36:34.835Z,12.26
2018-04-10T05:39:02.413Z,12.23
2018-04-10T05:41:30.021Z,12.27
2018-04-10T05:44:01.604Z,12.22
2018-04-10T05:46:29.545Z,12.17
2018-04-10T05:48:57.306Z,12.20
2018-04-10T05:51:25.059Z,12.28
2018-04-10T05:53:52.654Z,12.18
2018-04-10T05:56:22.139Z,12.27
2018-04-10T05:58:50.338Z,12.23
2018-04-10T06:01:17.857Z,12.20
2018-04-10T06:03:45.624Z,12.19
2018-04-10T06:06:14.442Z,12.22
2018-04-10T06:08:42.034Z,12.16
2018-04-10T06:11:09.740Z,12.30
2018-04-10T06:13:37.315Z,12.34
2018-04-10T06:16:04.847Z,12.18
2018-04-10T06:18:32.419Z,12.30
2018-04-10T06:20:59.933Z,12.37
2018-04-10T06:23:27.537Z,12.40
2018-04-10T06:25:55.080Z,12.36
2018-04-10T06:28:22.664Z,12.50
2018-04-10T06:30:50.192Z,12.48
2018-04-10T06:33:17.754Z,12.51
2018-04-10T06:35:45.270Z,12.61
2018-04-10T06:38:13.518Z,12.59
2018-04-10T06:40:41.051Z,12.62
2018-04-10T06:43:08.629Z,12.73
2018-04-10T06:45:36.148Z,12.70
2018-04-10T06:48:03.730Z,12.77
2018-04-10T06:50:31.253Z,12.93
2018-04-10T06:52:58.881Z,12.88
2018-04-10T06:55:26.402Z,12.95
2018-04-10T06:57:53.965Z,13.01
2018-04-10T07:00:21.494Z,13.13
2018-04-10T07:02:49.028Z,13.00
2018-04-10T07:05:16.605Z,13.01
2018-04-10T07:07:44.145Z,13.06
2018-04-10T07:10:11.697Z,13.11
2018-04-10T07:12:39.219Z,13.04
2018-04-10T07:15:06.826Z,13.20
2018-04-10T07:17:34.361Z,13.32
2018-04-10T07:20:01.922Z,13.16
2018-04-10T07:22:29.505Z,13.32
2018-04-10T07:24:57.131Z,13.39
2018-04-10T07:29:54.110Z,13.37
2018-04-10T07:32:21.692Z,13.42
2018-04-10T07:34:49.301Z,13.31
2018-04-10T07:37:16.848Z,13.30
2018-04-10T07:39:44.430Z,13.41
2018-04-10T07:42:12.502Z,13.41
2018-04-10T07:44:40.125Z,13.51
2018-04-10T07:47:07.680Z,13.47
2018-04-10T07:49:35.233Z,13.48
2018-04-10T07:52:02.779Z,13.45
2018-04-10T07:54:30.738Z,13.53
2018-04-10T07:56:58.390Z,13.56
2018-04-10T07:59:26.057Z,13.55
2018-04-10T08:01:53.684Z,13.64
2018-04-10T08:04:21.284Z,13.57
2018-04-10T08:06:48.829Z,13.47
2018-04-10T08:09:18.855Z,13.53
2018-04-10T08:11:47.079Z,13.53
2018-04-10T08:14:16.794Z,13.44
2018-04-10T08:16:46.428Z,13.39
2018-04-10T08:19:14.338Z,13.44
2018-04-10T08:21:42.911Z,13.53
2018-04-10T08:24:13.929Z,13.66
2018-04-10T08:26:44.584Z,13.67
2018-04-10T08:29:12.205Z,13.68
2018-04-10T08:31:43.028Z,13.68
2018-04-10T08:34:14.057Z,13.81
2018-04-10T08:36:47.016Z,13.82
2018-04-10T08:39:14.938Z,13.90
2018-04-10T08:41:42.479Z,13.80
2018-04-10T08:44:11.529Z,14.01
2018-04-10T08:46:41.721Z,14.00
2018-04-10T08:49:12.059Z,14.02
2018-04-10T08:51:39.581Z,14.04
2018-04-10T08:54:09.943Z,14.19
2018-04-10T08:56:38.326Z,14.44
2018-04-10T08:59:06.341Z,14.45
2018-04-10T09:01:34.599Z,14.43
2018-04-10T09:04:02.186Z,14.16
2018-04-10T09:06:32.505Z,14.21
2018-04-10T09:09:01.830Z,14.35
2018-04-10T09:11:31.441Z,14.37
2018-04-10T09:14:00.021Z,14.40
2018-04-10T09:16:30.962Z,14.37
2018-04-10T09:18:58.514Z,14.45
2018-04-10T09:21:27.696Z,14.43
2018-04-10T09:23:56.436Z,14.50
2018-04-10T09:26:28.173Z,14.45
2018-04-10T09:28:56.835Z,14.37
2018-04-10T09:31:24.539Z,14.46
2018-04-10T09:33:53.477Z,14.47
2018-04-10T09:36:22.047Z,14.30
2018-04-10T09:38:49.825Z,14.43
2018-04-10T09:41:19.882Z,14.48
2018-04-10T09:43:48.099Z,14.67
2018-04-10T09:46:21.144Z,14.66
2018-04-10T09:48:48.766Z,14.70
2018-04-10T09:51:16.998Z,14.69
2018-04-10T09:53:44.876Z,14.86
2018-04-10T09:56:13.393Z,14.97
2018-04-10T09:58:42.200Z,15.03
2018-04-10T10:01:09.794Z,15.14
2018-04-10T10:03:37.337Z,14.99
2018-04-10T10:06:04.922Z,15.20
2018-04-10T10:08:32.508Z,15.32
2018-04-10T10:11:00.104Z,15.31
2018-04-10T10:13:27.635Z,15.46
2018-04-10T10:15:55.998Z,15.47
2018-04-10T10:18:23.536Z,15.60
2018-04-10T10:20:51.179Z,15.81
2018-04-10T10:23:19.245Z,15.93
2018-04-10T10:25:46.825Z,15.69
2018-04-10T10:28:14.355Z,15.83
2018-04-10T10:30:41.931Z,15.82
2018-04-10T10:33:09.473Z,15.92
2018-04-10T10:35:37.035Z,16.12
2018-04-10T10:38:04.613Z,16.00
2018-04-10T10:40:32.160Z,16.18
2018-04-10T10:42:59.687Z,16.20
2018-04-10T10:45:27.251Z,15.90
2018-04-10T10:47:54.783Z,16.13
2018-04-10T10:50:22.352Z,15.94
2018-04-10T10:52:49.870Z,16.16
2018-04-10T10:55:17.424Z,16.29
2018-04-10T10:57:44.950Z,16.05
2018-04-10T11:00:12.502Z,16.39
2018-04-10T11:02:40.078Z,16.54
2018-04-10T11:05:07.598Z,16.23
2018-04-10T11:07:35.166Z,16.02
2018-04-10T11:10:02.777Z,16.03
2018-04-10T11:12:30.345Z,15.62
2018-04-10T11:14:57.870Z,15.32
2018-04-10T11:17:25.424Z,15.11
2018-04-10T11:19:52.951Z,15.05
2018-04-10T11:22:20.501Z,15.17
2018-04-10T11:24:48.026Z,15.17
2018-04-10T11:27:16.432Z,15.01
2018-04-10T11:29:43.989Z,15.08
2018-04-10T11:32:11.566Z,14.95
2018-04-10T11:34:39.082Z,14.99
2018-04-10T11:37:06.641Z,14.98
2018-04-10T11:39:35.157Z,14.87
2018-04-10T11:42:02.718Z,14.87
2018-04-10T11:44:30.268Z,14.84
2018-04-10T11:46:57.813Z,14.94
2018-04-10T11:49:25.356Z,14.91
2018-04-10T11:51:53.777Z,14.88
2018-04-10T11:54:22.762Z,14.85
2018-04-10T11:56:50.515Z,14.81
2018-04-10T11:59:18.245Z,14.75
2018-04-10T12:01:46.871Z,14.68
2018-04-10T12:04:14.528Z,14.64
2018-04-10T12:06:42.095Z,14.60
2018-04-10T12:09:09.622Z,14.47
2018-04-10T12:11:37.241Z,14.30
2018-04-10T12:14:04.769Z,14.12
2018-04-10T12:16:32.356Z,14.03
2018-04-10T12:18:59.896Z,14.01
2018-04-10T12:21:27.442Z,13.88
2018-04-10T12:23:55.022Z,13.79
2018-04-10T12:26:22.566Z,13.68
2018-04-10T12:28:50.097Z,13.66
2018-04-10T12:31:17.645Z,13.81
2018-04-10T12:33:45.186Z,13.66
2018-04-10T12:36:12.754Z,13.76
2018-04-10T12:38:40.269Z,13.86
2018-04-10T12:41:08.099Z,13.89
2018-04-10T12:43:35.847Z,13.76
2018-04-10T12:46:03.412Z,13.78
2018-04-10T12:48:31.776Z,13.72
2018-04-10T12:50:59.730Z,13.62
2018-04-10T12:53:27.930Z,13.59
2018-04-10T12:55:55.498Z,13.39
2018-04-10T12:58:23.360Z,13.54
2018-04-10T13:00:50.886Z,13.44
2018-04-10T13:03:20.033Z,13.08
2018-04-10T13:05:48.098Z,12.94
2018-04-10T13:08:17.194Z,13.08
2018-04-10T13:10:45.675Z,13.01
2018-04-10T13:13:14.063Z,13.02
2018-04-10T13:15:42.101Z,12.90
2018-04-10T13:18:10.217Z,12.79
2018-04-10T13:20:38.138Z,12.80
2018-04-10T13:23:07.644Z,12.87
2018-04-10T13:25:35.735Z,12.64
2018-04-10T13:28:03.355Z,12.57
2018-04-10T13:30:30.869Z,12.45
2018-04-10T13:32:58.751Z,12.34
2018-04-10T13:35:26.381Z,12.12
2018-04-10T13:37:53.935Z,12.26
2018-04-10T13:40:21.906Z,12.08
2018-04-10T13:42:49.730Z,12.19
2018-04-10T13:45:17.861Z,12.27
2018-04-10T13:47:45.449Z,12.27
2018-04-10T13:50:15.455Z,12.08
2018-04-10T13:52:43.299Z,12.09
2018-04-10T13:55:10.911Z,11.86
2018-04-10T13:57:43.715Z,12.04
2018-04-10T14:00:15.744Z,11.91
2018-04-10T14:02:43.744Z,11.88
2018-04-10T14:05:13.221Z,11.88
2018-04-10T14:07:45.406Z,11.91
2018-04-10T14:10:13.861Z,11.94
2018-04-10T14:12:46.140Z,11.97
2018-04-10T14:15:19.591Z,11.93
2018-04-10T14:17:50.456Z,11.90
2018-04-10T14:20:18.940Z,11.87
2018-04-10T14:22:46.568Z,11.84
2018-04-10T14:27:48.650Z,11.87
2018-04-10T14:30:16.252Z,11.96
2018-04-10T14:32:43.832Z,11.95
2018-04-10T14:35:11.380Z,11.95
2018-04-10T14:37:39.302Z,11.91
2018-04-10T14:40:06.823Z,11.68
2018-04-10T14:42:34.374Z,11.66
2018-04-10T14:45:01.916Z,11.69
2018-04-10T14:47:29.528Z,11.63
2018-04-10T14:49:57.038Z,11.64
2018-04-10T14:52:24.625Z,11.54
2018-04-10T14:54:52.796Z,11.53
2018-04-10T14:57:20.322Z,11.55
2018-04-10T14:59:47.895Z,11.65
2018-04-10T15:02:15.432Z,11.49
2018-04-10T15:04:42.999Z,11.49
2018-04-10T15:07:10.509Z,11.46
2018-04-10T15:09:38.107Z,11.42
2018-04-10T15:12:05.633Z,11.48
2018-04-10T15:14:33.388Z,11.35
2018-04-10T15:17:00.941Z,11.29
2018-04-10T15:19:28.612Z,11.26
2018-04-10T15:21:56.169Z,11.20
2018-04-10T15:24:24.732Z,11.31
2018-04-10T15:26:52.253Z,11.25
2018-04-10T15:29:19.898Z,11.24
2018-04-10T15:31:48.185Z,11.19
2018-04-10T15:34:18.124Z,11.18
2018-04-10T15:36:46.508Z,11.22
2018-04-10T15:39:15.265Z,11.28
2018-04-10T15:41:44.710Z,11.18
2018-04-10T15:44:16.348Z,11.15
2018-04-10T15:46:45.217Z,11.16
2018-04-10T15:49:13.418Z,11.11
2018-04-10T15:51:41.325Z,11.02
2018-04-10T15:54:09.176Z,10.97
2018-04-10T15:56:37.015Z,10.92
2018-04-10T15:59:04.624Z,10.87
2018-04-10T16:01:34.886Z,10.72
2018-04-10T16:04:10.362Z,10.54
2018-04-10T16:06:38.402Z,10.52
2018-04-10T16:09:05.979Z,10.26
2018-04-10T16:11:33.565Z,10.11
2018-04-10T16:14:01.146Z,10.03
2018-04-10T16:16:28.676Z,10.04
2018-04-10T16:18:56.252Z,9.91
2018-04-10T16:21:23.766Z,9.75
2018-04-10T16:23:51.330Z,9.76
2018-04-10T16:26:18.858Z,9.58
2018-04-10T16:28:46.426Z,9.64
2018-04-10T16:31:13.954Z,9.59
2018-04-10T16:33:41.513Z,9.60
2018-04-10T16:36:09.032Z,9.55
2018-04-10T16:38:36.581Z,9.51
2018-04-10T16:41:04.097Z,9.37
2018-04-10T16:43:31.676Z,9.30
2018-04-10T16:45:59.204Z,9.33
2018-04-10T16:48:26.718Z,9.32
2018-04-10T16:50:54.270Z,9.26
2018-04-10T16:53:21.796Z,9.26
2018-04-10T16:55:49.357Z,9.31
2018-04-10T16:58:16.888Z,9.34
2018-04-10T17:00:44.420Z,9.35
2018-04-10T17:03:15.784Z,9.30
2018-04-10T17:05:43.939Z,9.22
2018-04-10T17:08:14.460Z,9.08
2018-04-10T17:10:46.788Z,9.08
2018-04-10T17:13:17.842Z,8.93
2018-04-10T17:15:50.447Z,8.81
2018-04-10T17:18:21.351Z,9.00
2018-04-10T17:20:53.984Z,9.08
2018-04-10T17:23:25.069Z,9.12
2018-04-10T17:25:56.377Z,9.39
2018-04-10T17:28:27.088Z,9.45
2018-04-10T17:30:59.359Z,9.50
2018-04-10T17:33:30.910Z,9.57
2018-04-10T17:36:01.490Z,9.55
2018-04-10T17:38:32.468Z,9.47
2018-04-10T17:41:04.673Z,9.47
2018-04-10T17:43:36.328Z,9.49
2018-04-10T17:46:07.304Z,9.52
2018-04-10T17:48:38.461Z,9.53
2018-04-10T17:51:06.111Z,9.63
2018-04-10T17:53:34.199Z,9.60
2018-04-10T17:56:12.279Z,9.77
2018-04-10T17:58:40.646Z,9.77
2018-04-10T18:01:09.045Z,9.71
2018-04-10T18:03:37.001Z,9.62
2018-04-10T18:06:04.570Z,9.65
2018-04-10T18:08:32.201Z,9.47
2018-04-10T18:11:00.226Z,9.58
2018-04-10T18:13:28.553Z,9.68
2018-04-10T18:15:56.202Z,9.66
2018-04-10T18:18:23.763Z,9.62
2018-04-10T18:20:52.123Z,9.51
2018-04-10T18:23:19.659Z,9.49
2018-04-10T18:25:47.281Z,9.32
2018-04-10T18:28:14.832Z,9.18
2018-04-10T18:30:42.437Z,9.34
2018-04-10T18:33:09.993Z,9.25
2018-04-10T18:35:37.561Z,9.34
2018-04-10T18:38:05.097Z,9.38
2018-04-10T18:40:32.645Z,9.48
2018-04-10T18:43:00.187Z,9.28
2018-04-10T18:45:28.002Z,9.31
2018-04-10T18:47:55.534Z,9.19
2018-04-10T18:50:23.083Z,9.29
2018-04-10T18:52:52.958Z,9.31
2018-04-10T18:55:24.542Z,9.22
2018-04-10T18:57:57.549Z,9.36
2018-04-10T19:00:27.544Z,9.43
2018-04-10T19:02:57.016Z,9.41
2018-04-10T19:05:30.209Z,9.42
2018-04-10T19:08:00.155Z,9.38
2018-04-10T19:10:29.939Z,9.34
2018-04-10T19:13:00.874Z,9.16
2018-04-10T19:15:29.609Z,9.23
2018-04-10T19:17:57.198Z,9.12
2018-04-10T19:20:24.854Z,9.22
2018-04-10T19:22:52.675Z,9.31
2018-04-10T19:25:20.316Z,9.36
2018-04-10T19:27:47.920Z,9.30
2018-04-10T19:30:15.523Z,9.29
2018-04-10T19:32:43.039Z,9.03
2018-04-10T19:35:10.632Z,9.07
2018-04-10T19:37:38.735Z,9.06
2018-04-10T19:40:06.269Z,8.99
2018-04-10T19:42:34.065Z,9.14
2018-04-10T19:45:05.642Z,9.02
2018-04-10T19:47:33.189Z,8.91
2018-04-10T19:50:00.707Z,8.92
2018-04-10T19:52:28.268Z,8.88
2018-04-10T19:54:55.788Z,9.09
2018-04-10T19:57:23.492Z,9.11
2018-04-10T19:59:51.016Z,8.97
2018-04-10T20:02:20.465Z,8.96
2018-04-10T20:04:47.981Z,9.10
2018-04-10T20:07:15.609Z,8.94
2018-04-10T20:09:43.160Z,8.88
2018-04-10T20:12:10.721Z,8.90
2018-04-10T20:14:38.270Z,8.92
2018-04-10T20:17:05.902Z,8.97
2018-04-10T20:19:33.413Z,8.86
2018-04-10T20:22:00.968Z,8.86
2018-04-10T20:24:28.530Z,8.78
2018-04-10T20:26:56.086Z,8.96
2018-04-10T20:29:23.634Z,9.09
2018-04-10T20:31:51.190Z,8.99
2018-04-10T20:34:18.699Z,8.95
2018-04-10T20:36:46.286Z,8.85
2018-04-10T20:39:13.822Z,8.79
2018-04-10T20:41:41.489Z,8.82
2018-04-10T20:44:09.011Z,8.94
2018-04-10T20:46:36.577Z,8.94
2018-04-10T20:49:04.108Z,9.06
2018-04-10T20:51:32.985Z,9.11
2018-04-10T20:54:00.549Z,9.03
2018-04-10T20:56:28.137Z,9.13
2018-04-10T20:58:55.669Z,9.12
2018-04-10T21:01:23.227Z,8.97
2018-04-10T21:03:50.753Z,9.11
2018-04-10T21:06:18.299Z,8.99
2018-04-10T21:08:45.826Z,8.84
2018-04-10T21:11:13.366Z,8.57
2018-04-10T21:13:40.890Z,8.69
2018-04-10T21:16:08.462Z,8.49
2018-04-10T21:18:35.994Z,8.58
2018-04-10T21:21:03.560Z,8.70
2018-04-10T21:23:31.122Z,8.72
2018-04-10T21:25:58.629Z,8.66
2018-04-10T21:28:29.617Z,8.70
2018-04-10T21:30:59.206Z,8.42
2018-04-10T21:33:30.658Z,8.49
2018-04-10T21:35:59.027Z,8.50
2018-04-10T21:38:30.076Z,8.58
2018-04-10T21:41:00.718Z,8.57
2018-04-10T21:43:31.568Z,8.62
2018-04-10T21:46:01.062Z,8.75
2018-04-10T21:48:31.608Z,8.67
2018-04-10T21:51:01.501Z,8.53
2018-04-10T21:53:29.274Z,8.51
2018-04-10T21:55:57.084Z,8.45
2018-04-10T21:58:27.119Z,8.36
2018-04-10T22:00:55.220Z,8.35
2018-04-10T22:03:25.103Z,8.16
2018-04-10T22:05:54.065Z,8.30
2018-04-10T22:08:24.046Z,8.23
2018-04-10T22:10:51.913Z,8.33
2018-04-10T22:13:23.900Z,8.36
2018-04-10T22:15:55.421Z,8.36
2018-04-10T22:18:24.928Z,8.38
2018-04-10T22:20:54.131Z,8.28
2018-04-10T22:23:23.425Z,8.26
2018-04-10T22:25:53.310Z,8.26
2018-04-10T22:28:22.135Z,8.30
2018-04-10T22:30:53.007Z,8.21
2018-04-10T22:33:22.045Z,8.36
2018-04-10T22:35:51.328Z,8.31
2018-04-10T22:38:21.989Z,8.18
2018-04-10T22:40:49.846Z,8.19
2018-04-10T22:43:19.178Z,8.31
2018-04-10T22:45:47.052Z,8.34
2018-04-10T22:48:14.862Z,8.15
2018-04-10T22:50:44.415Z,8.18
2018-04-10T22:53:11.984Z,8.21
2018-04-10T22:55:44.168Z,8.19
2018-04-10T22:58:12.283Z,8.16
2018-04-10T23:00:54.634Z,8.09
2018-04-10T23:03:22.367Z,7.98
2018-04-10T23:05:49.949Z,8.07
2018-04-10T23:08:17.668Z,8.05
2018-04-10T23:10:45.331Z,8.03
2018-04-10T23:13:12.917Z,7.87
2018-04-10T23:15:40.697Z,7.83
2018-04-10T23:18:08.280Z,7.80
2018-04-10T23:20:35.802Z,7.73
2018-04-10T23:23:06.208Z,7.83
2018-04-10T23:25:34.278Z,7.85
2018-04-10T23:28:02.374Z,7.77
2018-04-10T23:30:30.038Z,7.77
2018-04-10T23:32:57.803Z,7.56
2018-04-10T23:35:25.523Z,7.79
2018-04-10T23:37:54.010Z,7.62
2018-04-10T23:40:21.964Z,7.53
2018-04-10T23:42:49.750Z,7.66
2018-04-10T23:45:17.463Z,7.67
2018-04-10T23:47:45.108Z,7.82
2018-04-10T23:50:12.852Z,7.82
2018-04-10T23:52:41.395Z,7.79
2018-04-10T23:55:09.869Z,7.87
2018-04-10T23:57:38.214Z,7.87
